Albion, Maine
Current Conditions -  °F | °C
As of 6:55 AM on Wednesday 28 Jan 2015 (Local Time) from KWVL Reporting Station
Overcast Overcast  
Wind Chill: -4°   Ceiling: 3600
Heat Index: 12°   Visibility: 10mi
Dew Point:   Wind: 15mph
Humidity: 85%   Direction: 340°NNW
Pressure: 29.74"   Gusts: 25mph
Location:  44.53°N, 69.44°W
Report Text: KWVL 281155Z 34013G22KT 10SM OVC036 M11/M13 A2974 RMK AO1 11110 21120 52027
Loading
Personal Weather Stations






























Interactive Weather Map New forecast layout! Learn more

10-Day Weather Forecast

Advertisements
Track Severe Weather on mobile